sensor_id;sensor_type;location;lat;lon;timestamp;pressure;altitude;pressure_sealevel;temperature;humidity
49541;BME280;35432;43.566;1.398;2023-03-21T00:01:22;100174.97;;;10.51;59.67
49541;BME280;35432;43.566;1.398;2023-03-21T00:03:47;100174.09;;;10.47;59.89
49541;BME280;35432;43.566;1.398;2023-03-21T00:06:13;100168.84;;;10.44;60.08
49541;BME280;35432;43.566;1.398;2023-03-21T00:08:39;100175.00;;;10.43;59.90
49541;BME280;35432;43.566;1.398;2023-03-21T00:11:07;100169.72;;;10.42;59.92
49541;BME280;35432;43.566;1.398;2023-03-21T00:13:33;100166.19;;;10.40;60.31
49541;BME280;35432;43.566;1.398;2023-03-21T00:16:13;100159.22;;;10.32;60.60
49541;BME280;35432;43.566;1.398;2023-03-21T00:18:44;100154.84;;;10.31;60.25
49541;BME280;35432;43.566;1.398;2023-03-21T00:21:12;100167.09;;;10.31;60.30
49541;BME280;35432;43.566;1.398;2023-03-21T00:23:40;100160.97;;;10.29;60.16
49541;BME280;35432;43.566;1.398;2023-03-21T00:26:05;100153.97;;;10.26;60.13
49541;BME280;35432;43.566;1.398;2023-03-21T00:28:38;100153.13;;;10.19;60.54
49541;BME280;35432;43.566;1.398;2023-03-21T00:31:05;100154.03;;;10.11;60.78
49541;BME280;35432;43.566;1.398;2023-03-21T00:33:31;100157.56;;;10.07;60.71
49541;BME280;35432;43.566;1.398;2023-03-21T00:35:56;100155.81;;;10.01;61.09
49541;BME280;35432;43.566;1.398;2023-03-21T00:38:22;100164.59;;;9.98;61.26
49541;BME280;35432;43.566;1.398;2023-03-21T00:40:48;100168.13;;;9.93;60.98
49541;BME280;35432;43.566;1.398;2023-03-21T00:43:15;100170.78;;;9.88;61.39
49541;BME280;35432;43.566;1.398;2023-03-21T00:45:48;100169.91;;;9.86;61.63
49541;BME280;35432;43.566;1.398;2023-03-21T00:48:13;100162.91;;;9.79;61.83
49541;BME280;35432;43.566;1.398;2023-03-21T00:50:39;100165.56;;;9.71;61.60
49541;BME280;35432;43.566;1.398;2023-03-21T00:53:06;100169.06;;;9.68;61.97
49541;BME280;35432;43.566;1.398;2023-03-21T00:55:32;100170.81;;;9.66;61.74
49541;BME280;35432;43.566;1.398;2023-03-21T00:57:58;100169.09;;;9.62;62.23
49541;BME280;35432;43.566;1.398;2023-03-21T01:00:23;100172.59;;;9.58;62.54
49541;BME280;35432;43.566;1.398;2023-03-21T01:02:49;100176.97;;;9.56;62.61
49541;BME280;35432;43.566;1.398;2023-03-21T01:05:25;100175.22;;;9.52;62.73
49541;BME280;35432;43.566;1.398;2023-03-21T01:08:15;100178.72;;;9.44;63.01
49541;BME280;35432;43.566;1.398;2023-03-21T01:10:42;100175.22;;;9.42;62.56
49541;BME280;35432;43.566;1.398;2023-03-21T01:13:10;100164.72;;;9.39;63.17
49541;BME280;35432;43.566;1.398;2023-03-21T01:15:36;100169.97;;;9.39;62.87
49541;BME280;35432;43.566;1.398;2023-03-21T01:18:06;100161.22;;;9.43;62.76
49541;BME280;35432;43.566;1.398;2023-03-21T01:20:31;100159.47;;;9.47;62.67
49541;BME280;35432;43.566;1.398;2023-03-21T01:22:57;100157.72;;;9.49;62.37
49541;BME280;35432;43.566;1.398;2023-03-21T01:25:22;100153.34;;;9.53;62.38
49541;BME280;35432;43.566;1.398;2023-03-21T01:27:47;100154.19;;;9.53;62.50
49541;BME280;35432;43.566;1.398;2023-03-21T01:30:13;100145.44;;;9.54;62.39
49541;BME280;35432;43.566;1.398;2023-03-21T01:32:38;100150.69;;;9.54;62.19
49541;BME280;35432;43.566;1.398;2023-03-21T01:35:04;100137.56;;;9.53;62.18
49541;BME280;35432;43.566;1.398;2023-03-21T01:37:30;100133.16;;;9.52;62.12
49541;BME280;35432;43.566;1.398;2023-03-21T01:39:56;100135.78;;;9.48;62.40
49541;BME280;35432;43.566;1.398;2023-03-21T01:42:22;100129.66;;;9.51;62.11
49541;BME280;35432;43.566;1.398;2023-03-21T01:47:54;100129.66;;;9.46;62.15
49541;BME280;35432;43.566;1.398;2023-03-21T01:50:19;100115.66;;;9.44;62.20
49541;BME280;35432;43.566;1.398;2023-03-21T01:52:48;100108.66;;;9.42;62.25
49541;BME280;35432;43.566;1.398;2023-03-21T01:55:14;100097.25;;;9.41;62.11
49541;BME280;35432;43.566;1.398;2023-03-21T01:57:45;100101.66;;;9.39;62.23
49541;BME280;35432;43.566;1.398;2023-03-21T02:00:12;100092.91;;;9.37;62.22
49541;BME280;35432;43.566;1.398;2023-03-21T02:02:42;100101.66;;;9.34;62.69
49541;BME280;35432;43.566;1.398;2023-03-21T02:05:32;100099.91;;;9.32;62.49
49541;BME280;35432;43.566;1.398;2023-03-21T02:08:02;100103.41;;;9.28;62.15
49541;BME280;35432;43.566;1.398;2023-03-21T02:10:28;100103.41;;;9.25;62.19
49541;BME280;35432;43.566;1.398;2023-03-21T02:12:59;100102.56;;;9.21;61.96
49541;BME280;35432;43.566;1.398;2023-03-21T02:15:36;100099.06;;;9.17;62.24
49541;BME280;35432;43.566;1.398;2023-03-21T02:18:25;100091.19;;;9.11;62.10
49541;BME280;35432;43.566;1.398;2023-03-21T02:29:01;100084.19;;;8.95;62.13
49541;BME280;35432;43.566;1.398;2023-03-21T02:31:41;100092.94;;;8.87;62.16
49541;BME280;35432;43.566;1.398;2023-03-21T02:37:34;100095.56;;;8.75;62.61
49541;BME280;35432;43.566;1.398;2023-03-21T02:45:41;100096.44;;;8.65;62.82
49541;BME280;35432;43.566;1.398;2023-03-21T02:48:14;100099.03;;;8.63;62.39
49541;BME280;35432;43.566;1.398;2023-03-21T02:50:49;100099.94;;;8.60;62.44
49541;BME280;35432;43.566;1.398;2023-03-21T02:53:19;100099.91;;;8.53;62.57
49541;BME280;35432;43.566;1.398;2023-03-21T02:55:47;100091.13;;;8.46;62.59
49541;BME280;35432;43.566;1.398;2023-03-21T02:58:19;100090.25;;;8.44;62.63
49541;BME280;35432;43.566;1.398;2023-03-21T03:00:46;100090.25;;;8.41;62.36
49541;BME280;35432;43.566;1.398;2023-03-21T03:03:12;100094.59;;;8.39;62.52
49541;BME280;35432;43.566;1.398;2023-03-21T03:05:51;100101.59;;;8.37;63.57
49541;BME280;35432;43.566;1.398;2023-03-21T03:10:50;100103.31;;;8.28;63.07
49541;BME280;35432;43.566;1.398;2023-03-21T03:18:58;100095.47;;;8.30;63.04
49541;BME280;35432;43.566;1.398;2023-03-21T03:21:28;100098.06;;;8.28;63.19
49541;BME280;35432;43.566;1.398;2023-03-21T03:24:01;100093.72;;;8.29;63.03
49541;BME280;35432;43.566;1.398;2023-03-21T03:26:50;100095.44;;;8.28;62.99
49541;BME280;35432;43.566;1.398;2023-03-21T03:29:19;100095.44;;;8.24;63.58
49541;BME280;35432;43.566;1.398;2023-03-21T03:32:27;100096.31;;;8.21;64.12
49541;BME280;35432;43.566;1.398;2023-03-21T03:34:52;100086.66;;;8.18;63.79
49541;BME280;35432;43.566;1.398;2023-03-21T03:37:27;100086.66;;;8.18;63.32
49541;BME280;35432;43.566;1.398;2023-03-21T03:42:42;100082.28;;;8.14;63.79
49541;BME280;35432;43.566;1.398;2023-03-21T03:45:10;100093.66;;;8.09;63.62
49541;BME280;35432;43.566;1.398;2023-03-21T03:48:06;100098.03;;;8.10;64.91
49541;BME280;35432;43.566;1.398;2023-03-21T03:50:44;100098.91;;;8.10;64.12
49541;BME280;35432;43.566;1.398;2023-03-21T03:55:42;100110.28;;;8.11;63.76
49541;BME280;35432;43.566;1.398;2023-03-21T03:58:09;100112.03;;;8.09;63.69
49541;BME280;35432;43.566;1.398;2023-03-21T04:00:36;100111.97;;;8.02;64.10
49541;BME280;35432;43.566;1.398;2023-03-21T04:03:01;100111.09;;;7.96;64.36
49541;BME280;35432;43.566;1.398;2023-03-21T04:05:26;100109.31;;;7.93;64.33
49541;BME280;35432;43.566;1.398;2023-03-21T04:07:52;100110.19;;;7.92;63.54
49541;BME280;35432;43.566;1.398;2023-03-21T04:10:19;100112.78;;;7.90;63.57
49541;BME280;35432;43.566;1.398;2023-03-21T04:12:45;100113.69;;;7.88;64.03
49541;BME280;35432;43.566;1.398;2023-03-21T04:15:11;100115.41;;;7.86;64.17
49541;BME280;35432;43.566;1.398;2023-03-21T04:17:37;100115.38;;;7.83;63.70
49541;BME280;35432;43.566;1.398;2023-03-21T04:20:04;100115.34;;;7.76;63.76
49541;BME280;35432;43.566;1.398;2023-03-21T04:22:30;100120.59;;;7.76;64.40
49541;BME280;35432;43.566;1.398;2023-03-21T04:24:58;100112.72;;;7.73;63.98
49541;BME280;35432;43.566;1.398;2023-03-21T04:27:25;100124.06;;;7.72;64.02
49541;BME280;35432;43.566;1.398;2023-03-21T04:29:51;100130.22;;;7.73;64.37
49541;BME280;35432;43.566;1.398;2023-03-21T04:32:16;100129.31;;;7.72;64.00
49541;BME280;35432;43.566;1.398;2023-03-21T04:34:44;100131.94;;;7.72;64.27
49541;BME280;35432;43.566;1.398;2023-03-21T04:37:15;100131.94;;;7.69;63.55
49541;BME280;35432;43.566;1.398;2023-03-21T04:39:41;100131.91;;;7.66;63.48
49541;BME280;35432;43.566;1.398;2023-03-21T04:42:07;100140.63;;;7.64;64.17
49541;BME280;35432;43.566;1.398;2023-03-21T04:44:32;100138.00;;;7.62;64.02
49541;BME280;35432;43.566;1.398;2023-03-21T04:46:57;100144.13;;;7.61;64.17
49541;BME280;35432;43.566;1.398;2023-03-21T04:49:23;100154.56;;;7.56;63.98
49541;BME280;35432;43.566;1.398;2023-03-21T04:51:48;100148.41;;;7.50;63.61
49541;BME280;35432;43.566;1.398;2023-03-21T04:54:14;100142.25;;;7.46;64.33
49541;BME280;35432;43.566;1.398;2023-03-21T04:56:39;100150.09;;;7.43;63.89
49541;BME280;35432;43.566;1.398;2023-03-21T04:59:11;100143.97;;;7.39;64.12
49541;BME280;35432;43.566;1.398;2023-03-21T05:01:37;100142.22;;;7.40;64.75
49541;BME280;35432;43.566;1.398;2023-03-21T05:04:03;100134.31;;;7.35;64.47
49541;BME280;35432;43.566;1.398;2023-03-21T05:06:29;100132.53;;;7.31;64.49
49541;BME280;35432;43.566;1.398;2023-03-21T05:08:55;100136.88;;;7.26;64.98
49541;BME280;35432;43.566;1.398;2023-03-21T05:11:25;100140.38;;;7.25;64.75
49541;BME280;35432;43.566;1.398;2023-03-21T05:13:50;100137.72;;;7.20;64.34
49541;BME280;35432;43.566;1.398;2023-03-21T05:16:16;100137.69;;;7.15;65.09
49541;BME280;35432;43.566;1.398;2023-03-21T05:18:41;100142.84;;;7.09;65.24
49541;BME280;35432;43.566;1.398;2023-03-21T05:21:06;100147.19;;;7.04;65.24
49541;BME280;35432;43.566;1.398;2023-03-21T05:23:34;100158.50;;;7.00;66.51
49541;BME280;35432;43.566;1.398;2023-03-21T05:26:11;100163.75;;;7.00;65.78
49541;BME280;35432;43.566;1.398;2023-03-21T05:28:36;100172.47;;;7.00;65.73
49541;BME280;35432;43.566;1.398;2023-03-21T05:31:05;100170.72;;;7.01;65.75
49541;BME280;35432;43.566;1.398;2023-03-21T05:33:31;100182.94;;;6.99;65.87
49541;BME280;35432;43.566;1.398;2023-03-21T05:35:57;100178.53;;;6.95;66.32
49541;BME280;35432;43.566;1.398;2023-03-21T05:38:22;100185.47;;;6.91;66.73
49541;BME280;35432;43.566;1.398;2023-03-21T05:40:49;100181.13;;;6.92;67.06
49541;BME280;35432;43.566;1.398;2023-03-21T05:43:14;100177.63;;;6.93;66.19
49541;BME280;35432;43.566;1.398;2023-03-21T05:45:40;100179.38;;;6.95;66.33
49541;BME280;35432;43.566;1.398;2023-03-21T05:48:06;100186.44;;;6.99;66.39
49541;BME280;35432;43.566;1.398;2023-03-21T05:50:31;100186.44;;;6.99;66.17
49541;BME280;35432;43.566;1.398;2023-03-21T05:52:57;100190.78;;;6.99;66.42
49541;BME280;35432;43.566;1.398;2023-03-21T05:55:22;100192.50;;;6.98;66.41
49541;BME280;35432;43.566;1.398;2023-03-21T05:57:48;100192.50;;;6.98;66.43
49541;BME280;35432;43.566;1.398;2023-03-21T06:00:14;100198.66;;;7.02;65.97
49541;BME280;35432;43.566;1.398;2023-03-21T06:02:40;100195.19;;;7.03;65.53
49541;BME280;35432;43.566;1.398;2023-03-21T06:05:06;100193.44;;;7.05;66.78
49541;BME280;35432;43.566;1.398;2023-03-21T06:07:32;100208.28;;;7.03;65.85
49541;BME280;35432;43.566;1.398;2023-03-21T06:09:58;100220.47;;;6.99;65.84
49541;BME280;35432;43.566;1.398;2023-03-21T06:12:23;100216.09;;;7.00;65.99
49541;BME280;35432;43.566;1.398;2023-03-21T06:14:49;100209.13;;;7.02;66.42
49541;BME280;35432;43.566;1.398;2023-03-21T06:17:14;100220.50;;;7.04;66.19
49541;BME280;35432;43.566;1.398;2023-03-21T06:19:40;100221.41;;;7.08;65.80
49541;BME280;35432;43.566;1.398;2023-03-21T06:22:05;100232.78;;;7.10;65.77
49541;BME280;35432;43.566;1.398;2023-03-21T06:24:31;100234.56;;;7.12;66.57
49541;BME280;35432;43.566;1.398;2023-03-21T06:26:56;100234.66;;;7.25;65.46
49541;BME280;35432;43.566;1.398;2023-03-21T06:29:22;100237.34;;;7.34;65.74
49541;BME280;35432;43.566;1.398;2023-03-21T06:31:47;100236.56;;;7.41;65.92
49541;BME280;35432;43.566;1.398;2023-03-21T06:34:12;100249.66;;;7.43;65.82
49541;BME280;35432;43.566;1.398;2023-03-21T06:36:38;100245.28;;;7.40;66.05
49541;BME280;35432;43.566;1.398;2023-03-21T06:39:04;100247.88;;;7.37;66.54
49541;BME280;35432;43.566;1.398;2023-03-21T06:41:31;100245.25;;;7.37;65.95
49541;BME280;35432;43.566;1.398;2023-03-21T06:43:56;100254.88;;;7.38;65.82
49541;BME280;35432;43.566;1.398;2023-03-21T06:46:22;100249.66;;;7.41;66.21
49541;BME280;35432;43.566;1.398;2023-03-21T06:48:47;100252.28;;;7.46;66.07
49541;BME280;35432;43.566;1.398;2023-03-21T06:51:13;100253.22;;;7.53;66.18
49541;BME280;35432;43.566;1.398;2023-03-21T06:53:39;100255.91;;;7.57;66.26
49541;BME280;35432;43.566;1.398;2023-03-21T06:56:07;100259.44;;;7.64;65.90
49541;BME280;35432;43.566;1.398;2023-03-21T06:58:32;100264.72;;;7.67;66.12
49541;BME280;35432;43.566;1.398;2023-03-21T07:00:59;100265.59;;;7.71;65.97
49541;BME280;35432;43.566;1.398;2023-03-21T07:03:25;100243.78;;;7.72;65.78
49541;BME280;35432;43.566;1.398;2023-03-21T07:05:51;100242.03;;;7.72;65.59
49541;BME280;35432;43.566;1.398;2023-03-21T07:10:43;100242.09;;;7.83;66.01
49541;BME280;35432;43.566;1.398;2023-03-21T07:13:09;100237.78;;;7.90;65.79
49541;BME280;35432;43.566;1.398;2023-03-21T07:15:35;100240.41;;;7.95;65.54
49541;BME280;35432;43.566;1.398;2023-03-21T07:18:07;100235.22;;;7.98;65.54
49541;BME280;35432;43.566;1.398;2023-03-21T07:20:33;100237.91;;;8.09;65.63
49541;BME280;35432;43.566;1.398;2023-03-21T07:22:59;100239.69;;;8.16;65.80
49541;BME280;35432;43.566;1.398;2023-03-21T07:25:25;100227.47;;;8.21;65.74
49541;BME280;35432;43.566;1.398;2023-03-21T07:27:50;100239.72;;;8.25;65.98
49541;BME280;35432;43.566;1.398;2023-03-21T07:30:16;100242.38;;;8.30;65.65
49541;BME280;35432;43.566;1.398;2023-03-21T07:32:42;100243.28;;;8.33;66.72
49541;BME280;35432;43.566;1.398;2023-03-21T07:35:11;100238.06;;;8.40;65.97
49541;BME280;35432;43.566;1.398;2023-03-21T07:37:37;100240.69;;;8.46;66.57
49541;BME280;35432;43.566;1.398;2023-03-21T07:40:03;100253.88;;;8.52;66.26
49541;BME280;35432;43.566;1.398;2023-03-21T07:42:39;100253.88;;;8.55;66.64
49541;BME280;35432;43.566;1.398;2023-03-21T07:45:06;100266.19;;;8.63;66.66
49541;BME280;35432;43.566;1.398;2023-03-21T07:47:32;100273.19;;;8.67;66.54
49541;BME280;35432;43.566;1.398;2023-03-21T07:49:58;100267.06;;;8.71;66.60
49541;BME280;35432;43.566;1.398;2023-03-21T07:52:24;100268.81;;;8.72;66.60
49541;BME280;35432;43.566;1.398;2023-03-21T07:54:49;100269.72;;;8.77;67.38
49541;BME280;35432;43.566;1.398;2023-03-21T07:57:15;100271.50;;;8.84;67.02
49541;BME280;35432;43.566;1.398;2023-03-21T07:59:41;100275.03;;;8.93;66.63
49541;BME280;35432;43.566;1.398;2023-03-21T08:02:11;100286.41;;;8.98;66.63
49541;BME280;35432;43.566;1.398;2023-03-21T08:04:37;100291.66;;;9.04;66.94
49541;BME280;35432;43.566;1.398;2023-03-21T08:07:03;100285.56;;;9.05;67.30
49541;BME280;35432;43.566;1.398;2023-03-21T08:09:28;100291.69;;;9.12;67.17
49541;BME280;35432;43.566;1.398;2023-03-21T08:11:53;100291.72;;;9.23;67.10
49541;BME280;35432;43.566;1.398;2023-03-21T08:14:19;100291.75;;;9.44;66.42
49541;BME280;35432;43.566;1.398;2023-03-21T08:16:44;100305.78;;;9.63;66.14
49541;BME280;35432;43.566;1.398;2023-03-21T08:19:10;100312.81;;;9.83;65.85
49541;BME280;35432;43.566;1.398;2023-03-21T08:21:36;100306.66;;;9.92;65.44
49541;BME280;35432;43.566;1.398;2023-03-21T08:24:03;100296.13;;;9.98;65.39
49541;BME280;35432;43.566;1.398;2023-03-21T08:26:29;100296.13;;;10.06;65.16
49541;BME280;35432;43.566;1.398;2023-03-21T08:28:56;100305.75;;;10.15;64.78
49541;BME280;35432;43.566;1.398;2023-03-21T08:31:21;100304.88;;;10.28;64.89
49541;BME280;35432;43.566;1.398;2023-03-21T08:33:46;100320.63;;;10.44;64.31
49541;BME280;35432;43.566;1.398;2023-03-21T08:36:15;100320.63;;;10.61;64.06
49541;BME280;35432;43.566;1.398;2023-03-21T08:38:40;100320.56;;;10.75;64.06
49541;BME280;35432;43.566;1.398;2023-03-21T08:41:06;100323.16;;;10.81;63.64
49541;BME280;35432;43.566;1.398;2023-03-21T08:43:31;100326.66;;;10.86;64.14
49541;BME280;35432;43.566;1.398;2023-03-21T08:45:56;100319.56;;;10.95;63.41
49541;BME280;35432;43.566;1.398;2023-03-21T08:48:22;100319.59;;;10.98;63.25
49541;BME280;35432;43.566;1.398;2023-03-21T08:50:48;100322.16;;;11.05;63.73
49541;BME280;35432;43.566;1.398;2023-03-21T08:53:13;100310.72;;;11.13;63.72
49541;BME280;35432;43.566;1.398;2023-03-21T08:55:38;100308.88;;;11.26;63.19
49541;BME280;35432;43.566;1.398;2023-03-21T08:58:04;100314.13;;;11.29;62.81
49541;BME280;35432;43.566;1.398;2023-03-21T09:00:31;100321.13;;;11.36;62.77
49541;BME280;35432;43.566;1.398;2023-03-21T09:02:56;100308.75;;;11.47;62.85
49541;BME280;35432;43.566;1.398;2023-03-21T09:05:23;100303.41;;;11.58;62.24
49541;BME280;35432;43.566;1.398;2023-03-21T09:07:51;100304.16;;;11.74;61.84
49541;BME280;35432;43.566;1.398;2023-03-21T09:10:18;100306.59;;;11.95;61.69
49541;BME280;35432;43.566;1.398;2023-03-21T09:12:44;100312.56;;;12.20;61.13
49541;BME280;35432;43.566;1.398;2023-03-21T09:15:10;100308.84;;;12.38;60.89
49541;BME280;35432;43.566;1.398;2023-03-21T09:17:37;100317.47;;;12.54;60.65
49541;BME280;35432;43.566;1.398;2023-03-21T09:20:11;100308.53;;;12.68;60.30
49541;BME280;35432;43.566;1.398;2023-03-21T09:22:46;100314.53;;;12.77;59.72
49541;BME280;35432;43.566;1.398;2023-03-21T09:25:13;100311.84;;;12.82;59.70
49541;BME280;35432;43.566;1.398;2023-03-21T09:27:39;100310.06;;;12.84;59.68
49541;BME280;35432;43.566;1.398;2023-03-21T09:30:05;100310.00;;;12.87;59.25
49541;BME280;35432;43.566;1.398;2023-03-21T09:32:32;100309.16;;;12.87;59.25
49541;BME280;35432;43.566;1.398;2023-03-21T09:34:58;100308.28;;;12.86;59.31
49541;BME280;35432;43.566;1.398;2023-03-21T09:37:23;100308.31;;;12.83;59.39
49541;BME280;35432;43.566;1.398;2023-03-21T09:39:49;100306.53;;;12.85;59.36
49541;BME280;35432;43.566;1.398;2023-03-21T09:42:54;100305.72;;;12.82;59.33
49541;BME280;35432;43.566;1.398;2023-03-21T09:45:51;100302.22;;;12.80;59.19
49541;BME280;35432;43.566;1.398;2023-03-21T09:48:35;100311.88;;;12.81;59.46
49541;BME280;35432;43.566;1.398;2023-03-21T09:51:08;100301.25;;;12.85;59.49
49541;BME280;35432;43.566;1.398;2023-03-21T09:53:38;100299.34;;;12.97;59.13
49541;BME280;35432;43.566;1.398;2023-03-21T09:56:08;100305.38;;;13.05;58.47
49541;BME280;35432;43.566;1.398;2023-03-21T09:58:40;100304.41;;;13.12;58.69
49541;BME280;35432;43.566;1.398;2023-03-21T10:03:35;100286.34;;;13.44;57.73
49541;BME280;35432;43.566;1.398;2023-03-21T10:06:10;100285.34;;;13.53;56.97
49541;BME280;35432;43.566;1.398;2023-03-21T10:08:42;100286.97;;;13.60;57.26
49541;BME280;35432;43.566;1.398;2023-03-21T10:11:25;100288.47;;;13.76;57.02
49541;BME280;35432;43.566;1.398;2023-03-21T10:14:00;100282.88;;;13.93;56.90
49541;BME280;35432;43.566;1.398;2023-03-21T10:16:29;100278.47;;;13.94;56.91
49541;BME280;35432;43.566;1.398;2023-03-21T10:18:56;100268.50;;;14.09;56.58
49541;BME280;35432;43.566;1.398;2023-03-21T10:21:25;100271.91;;;14.15;56.35
49541;BME280;35432;43.566;1.398;2023-03-21T10:23:53;100263.88;;;14.20;56.27
49541;BME280;35432;43.566;1.398;2023-03-21T10:26:21;100256.66;;;14.28;56.00
49541;BME280;35432;43.566;1.398;2023-03-21T10:28:48;100267.09;;;14.38;55.96
49541;BME280;35432;43.566;1.398;2023-03-21T10:31:17;100263.47;;;14.42;56.13
49541;BME280;35432;43.566;1.398;2023-03-21T10:33:45;100266.59;;;14.62;55.59
49541;BME280;35432;43.566;1.398;2023-03-21T10:36:22;100269.72;;;14.83;54.94
49541;BME280;35432;43.566;1.398;2023-03-21T10:38:53;100262.47;;;14.91;54.45
49541;BME280;35432;43.566;1.398;2023-03-21T10:41:20;100253.19;;;15.11;54.43
49541;BME280;35432;43.566;1.398;2023-03-21T10:43:46;100268.88;;;15.20;54.80
49541;BME280;35432;43.566;1.398;2023-03-21T10:46:27;100276.56;;;15.33;54.42
49541;BME280;35432;43.566;1.398;2023-03-21T10:48:53;100287.63;;;15.50;54.42
49541;BME280;35432;43.566;1.398;2023-03-21T10:51:22;100285.28;;;15.74;54.04
49541;BME280;35432;43.566;1.398;2023-03-21T10:54:13;100284.56;;;16.04;53.06
49541;BME280;35432;43.566;1.398;2023-03-21T10:56:47;100276.75;;;16.31;52.43
49541;BME280;35432;43.566;1.398;2023-03-21T10:59:17;100279.94;;;16.44;52.23
49541;BME280;35432;43.566;1.398;2023-03-21T11:01:50;100273.28;;;16.60;51.99
49541;BME280;35432;43.566;1.398;2023-03-21T11:04:19;100265.75;;;16.75;51.41
49541;BME280;35432;43.566;1.398;2023-03-21T11:07:05;100262.03;;;16.81;50.74
49541;BME280;35432;43.566;1.398;2023-03-21T11:09:47;100262.53;;;16.93;50.93
49541;BME280;35432;43.566;1.398;2023-03-21T11:12:15;100279.50;;;17.19;50.81
49541;BME280;35432;43.566;1.398;2023-03-21T11:14:47;100268.38;;;17.35;50.17
49541;BME280;35432;43.566;1.398;2023-03-21T11:19:50;100263.69;;;17.70;50.41
49541;BME280;35432;43.566;1.398;2023-03-21T11:22:18;100253.84;;;17.99;50.27
49541;BME280;35432;43.566;1.398;2023-03-21T11:24:52;100262.72;;;18.25;49.79
49541;BME280;35432;43.566;1.398;2023-03-21T11:27:18;100245.13;;;18.45;49.40
49541;BME280;35432;43.566;1.398;2023-03-21T11:29:49;100247.56;;;18.51;49.11
49541;BME280;35432;43.566;1.398;2023-03-21T11:32:30;100246.50;;;18.55;48.64
49541;BME280;35432;43.566;1.398;2023-03-21T11:35:19;100244.41;;;18.63;48.03
49541;BME280;35432;43.566;1.398;2023-03-21T11:37:44;100232.00;;;18.62;48.50
49541;BME280;35432;43.566;1.398;2023-03-21T11:40:34;100238.34;;;18.60;48.44
49541;BME280;35432;43.566;1.398;2023-03-21T11:45:28;100230.94;;;18.90;47.91
49541;BME280;35432;43.566;1.398;2023-03-21T11:47:56;100228.81;;;19.00;47.68
49541;BME280;35432;43.566;1.398;2023-03-21T11:50:35;100228.63;;;19.05;47.04
49541;BME280;35432;43.566;1.398;2023-03-21T12:01:44;100222.25;;;18.85;46.91
49541;BME280;35432;43.566;1.398;2023-03-21T12:12:21;100197.59;;;18.78;47.48
49541;BME280;35432;43.566;1.398;2023-03-21T12:37:55;100177.34;;;19.41;45.95
49541;BME280;35432;43.566;1.398;2023-03-21T12:45:56;100166.66;;;19.62;45.44
49541;BME280;35432;43.566;1.398;2023-03-21T12:49:01;100163.13;;;19.61;45.32
49541;BME280;35432;43.566;1.398;2023-03-21T12:51:31;100153.50;;;19.78;45.54
49541;BME280;35432;43.566;1.398;2023-03-21T12:54:26;100150.75;;;19.79;45.30
49541;BME280;35432;43.566;1.398;2023-03-21T12:56:59;100150.31;;;19.89;44.54
49541;BME280;35432;43.566;1.398;2023-03-21T12:59:50;100143.81;;;19.96;44.57
49541;BME280;35432;43.566;1.398;2023-03-21T13:02:33;100141.59;;;20.06;44.46
49541;BME280;35432;43.566;1.398;2023-03-21T13:05:27;100135.97;;;20.12;44.87
49541;BME280;35432;43.566;1.398;2023-03-21T13:10:24;100133.78;;;20.01;43.42
49541;BME280;35432;43.566;1.398;2023-03-21T13:18:31;100132.69;;;19.85;43.13
49541;BME280;35432;43.566;1.398;2023-03-21T13:23:37;100116.22;;;19.75;43.18
49541;BME280;35432;43.566;1.398;2023-03-21T13:26:07;100122.72;;;19.69;43.23
49541;BME280;35432;43.566;1.398;2023-03-21T13:28:34;100113.03;;;19.67;42.89
49541;BME280;35432;43.566;1.398;2023-03-21T13:31:16;100120.44;;;19.60;42.60
49541;BME280;35432;43.566;1.398;2023-03-21T13:33:46;100103.47;;;19.61;42.83
49541;BME280;35432;43.566;1.398;2023-03-21T13:36:14;100111.50;;;19.61;42.66
49541;BME280;35432;43.566;1.398;2023-03-21T13:38:40;100109.91;;;19.57;42.97
49541;BME280;35432;43.566;1.398;2023-03-21T13:41:08;100109.69;;;19.61;42.64
49541;BME280;35432;43.566;1.398;2023-03-21T13:47:00;100098.53;;;19.72;41.20
49541;BME280;35432;43.566;1.398;2023-03-21T13:49:34;100094.50;;;19.83;41.66
49541;BME280;35432;43.566;1.398;2023-03-21T13:52:46;100094.16;;;19.90;41.89
49541;BME280;35432;43.566;1.398;2023-03-21T13:54:54;100096.22;;;20.04;41.46
49541;BME280;35432;43.566;1.398;2023-03-21T14:00:18;100085.22;;;20.49;40.40
49541;BME280;35432;43.566;1.398;2023-03-21T14:02:57;100079.84;;;20.87;39.81
49541;BME280;35432;43.566;1.398;2023-03-21T14:05:25;100073.38;;;20.91;38.70
49541;BME280;35432;43.566;1.398;2023-03-21T14:07:55;100074.63;;;20.84;37.80
49541;BME280;35432;43.566;1.398;2023-03-21T14:12:47;100085.50;;;20.62;38.06
49541;BME280;35432;43.566;1.398;2023-03-21T14:15:23;100081.88;;;20.63;37.54
49541;BME280;35432;43.566;1.398;2023-03-21T14:17:54;100072.03;;;20.83;38.00
49541;BME280;35432;43.566;1.398;2023-03-21T14:20:29;100075.19;;;21.08;37.81
49541;BME280;35432;43.566;1.398;2023-03-21T14:22:55;100071.56;;;21.27;37.56
49541;BME280;35432;43.566;1.398;2023-03-21T14:25:23;100061.25;;;21.37;37.35
49541;BME280;35432;43.566;1.398;2023-03-21T14:27:54;100062.31;;;21.50;37.46
49541;BME280;35432;43.566;1.398;2023-03-21T14:30:32;100056.00;;;21.69;37.04
49541;BME280;35432;43.566;1.398;2023-03-21T14:35:40;100040.84;;;22.18;36.17
49541;BME280;35432;43.566;1.398;2023-03-21T14:38:07;100041.91;;;22.31;35.92
49541;BME280;35432;43.566;1.398;2023-03-21T14:40:34;100054.09;;;22.21;35.87
49541;BME280;35432;43.566;1.398;2023-03-21T14:43:04;100044.91;;;21.93;35.19
49541;BME280;35432;43.566;1.398;2023-03-21T14:45:33;100049.47;;;21.75;36.31
49541;BME280;35432;43.566;1.398;2023-03-21T14:50:41;100043.22;;;21.23;35.77
49541;BME280;35432;43.566;1.398;2023-03-21T14:53:20;100039.69;;;21.05;36.27
49541;BME280;35432;43.566;1.398;2023-03-21T14:55:51;100031.19;;;20.97;36.72
49541;BME280;35432;43.566;1.398;2023-03-21T14:58:21;100038.50;;;20.93;36.79
49541;BME280;35432;43.566;1.398;2023-03-21T15:00:49;100030.78;;;20.87;36.73